createdAt,value
2022-09-07T00:01:00.750Z,100.00
2022-09-07T00:03:27.865Z,100.00
2022-09-07T00:05:54.617Z,100.00
2022-09-07T00:08:23.308Z,100.00
2022-09-07T00:10:59.503Z,100.00
2022-09-07T00:13:28.601Z,100.00
2022-09-07T00:15:55.618Z,100.00
2022-09-07T00:18:22.262Z,100.00
2022-09-07T00:21:01.041Z,100.00
2022-09-07T00:23:30.019Z,100.00
2022-09-07T00:26:06.185Z,100.00
2022-09-07T00:28:33.144Z,100.00
2022-09-07T00:30:59.949Z,99.46
2022-09-07T00:33:27.012Z,100.00
2022-09-07T00:35:54.192Z,100.00
2022-09-07T00:38:20.867Z,100.00
2022-09-07T00:40:47.469Z,100.00
2022-09-07T00:43:18.258Z,100.00
2022-09-07T00:45:44.818Z,100.00
2022-09-07T00:48:17.118Z,100.00
2022-09-07T00:50:48.488Z,100.00
2022-09-07T00:53:21.336Z,100.00
2022-09-07T00:55:51.146Z,100.00
2022-09-07T00:58:19.947Z,100.00
2022-09-07T01:00:48.778Z,100.00
2022-09-07T01:03:19.081Z,100.00
2022-09-07T01:05:48.466Z,100.00
2022-09-07T01:08:15.362Z,100.00
2022-09-07T01:10:41.976Z,100.00
2022-09-07T01:13:08.611Z,100.00
2022-09-07T01:16:14.233Z,100.00
2022-09-07T01:19:00.205Z,100.00
2022-09-07T01:21:53.057Z,100.00
2022-09-07T01:24:41.818Z,100.00
2022-09-07T01:27:20.750Z,99.52
2022-09-07T01:30:06.323Z,98.81
2022-09-07T01:32:54.402Z,99.68
2022-09-07T01:35:31.781Z,100.00
2022-09-07T01:38:29.288Z,100.00
2022-09-07T01:41:03.272Z,100.00
2022-09-07T01:43:51.581Z,100.00
2022-09-07T01:46:42.616Z,100.00
2022-09-07T01:49:14.437Z,99.67
2022-09-07T01:51:47.303Z,100.00
2022-09-07T01:54:32.104Z,100.00
2022-09-07T01:57:04.397Z,99.46
2022-09-07T01:59:44.617Z,99.13
2022-09-07T02:02:16.798Z,97.99
2022-09-07T02:04:55.519Z,100.00
2022-09-07T02:07:28.448Z,99.31
2022-09-07T02:10:02.566Z,99.85
2022-09-07T02:12:40.686Z,98.00
2022-09-07T02:15:16.556Z,96.85
2022-09-07T02:17:49.060Z,97.21
2022-09-07T02:20:22.017Z,97.58
2022-09-07T02:22:55.087Z,98.42
2022-09-07T02:25:26.737Z,98.71
2022-09-07T02:28:00.165Z,98.47
2022-09-07T02:30:26.698Z,97.36
2022-09-07T02:32:54.097Z,99.08
2022-09-07T02:35:20.910Z,98.20
2022-09-07T02:37:48.867Z,97.59
2022-09-07T02:40:15.354Z,96.50
2022-09-07T02:42:43.335Z,98.03
2022-09-07T02:45:12.644Z,99.41
2022-09-07T02:48:14.320Z,99.82
2022-09-07T02:50:56.372Z,100.00
2022-09-07T02:53:52.640Z,100.00
2022-09-07T02:56:37.877Z,100.00
2022-09-07T02:59:22.897Z,100.00
2022-09-07T03:02:25.115Z,98.88
2022-09-07T03:05:11.505Z,100.00
2022-09-07T03:07:51.413Z,100.00
2022-09-07T03:10:19.025Z,100.00
2022-09-07T03:12:48.493Z,100.00
2022-09-07T03:15:18.925Z,100.00
2022-09-07T03:17:45.448Z,100.00
2022-09-07T03:20:12.697Z,100.00
2022-09-07T03:22:39.583Z,100.00
2022-09-07T03:25:06.892Z,100.00
2022-09-07T03:27:33.689Z,100.00
2022-09-07T03:30:00.375Z,100.00
2022-09-07T03:32:32.770Z,100.00
2022-09-07T03:35:00.065Z,100.00
2022-09-07T03:37:26.840Z,100.00
2022-09-07T03:39:53.472Z,100.00
2022-09-07T03:42:20.642Z,100.00
2022-09-07T03:44:49.422Z,100.00
2022-09-07T03:47:17.189Z,100.00
2022-09-07T03:49:44.142Z,100.00
2022-09-07T03:52:10.668Z,100.00
2022-09-07T03:54:39.576Z,99.57
2022-09-07T03:57:06.814Z,100.00
2022-09-07T03:59:33.343Z,100.00
2022-09-07T04:02:00.156Z,100.00
2022-09-07T04:04:27.392Z,100.00
2022-09-07T04:06:54.071Z,100.00
2022-09-07T04:09:20.608Z,100.00
2022-09-07T04:11:47.187Z,100.00
2022-09-07T04:14:13.780Z,100.00
2022-09-07T04:16:40.703Z,100.00
2022-09-07T04:19:07.247Z,100.00
2022-09-07T04:21:34.509Z,100.00
2022-09-07T04:24:01.389Z,100.00
2022-09-07T04:26:33.285Z,100.00
2022-09-07T04:29:03.412Z,100.00
2022-09-07T04:31:30.947Z,100.00
2022-09-07T04:33:57.432Z,100.00
2022-09-07T04:36:24.941Z,100.00
2022-09-07T04:38:59.746Z,100.00
2022-09-07T04:41:27.790Z,100.00
2022-09-07T04:43:56.689Z,100.00
2022-09-07T04:46:26.234Z,100.00
2022-09-07T04:48:58.194Z,100.00
2022-09-07T04:51:27.041Z,100.00
2022-09-07T04:53:55.345Z,100.00
2022-09-07T04:56:22.804Z,100.00
2022-09-07T04:58:49.916Z,100.00
2022-09-07T05:01:19.465Z,100.00
2022-09-07T05:03:47.109Z,100.00
2022-09-07T05:06:14.515Z,100.00
2022-09-07T05:08:47.550Z,100.00
2022-09-07T05:11:15.242Z,100.00
2022-09-07T05:13:42.322Z,100.00
2022-09-07T05:16:20.472Z,100.00
2022-09-07T05:18:51.417Z,100.00
2022-09-07T05:21:23.505Z,100.00
2022-09-07T05:23:51.666Z,99.11
2022-09-07T05:26:20.109Z,99.44
2022-09-07T05:28:47.096Z,100.00
2022-09-07T05:31:20.481Z,99.97
2022-09-07T05:36:37.045Z,99.49
2022-09-07T05:39:05.045Z,98.47
2022-09-07T05:41:31.882Z,99.74
2022-09-07T05:46:45.138Z,98.82
2022-09-07T05:49:11.740Z,98.50
2022-09-07T05:51:38.848Z,97.96
2022-09-07T05:54:05.588Z,98.24
2022-09-07T05:56:35.946Z,98.13
2022-09-07T05:59:02.619Z,97.12
2022-09-07T06:01:29.179Z,94.40
2022-09-07T06:03:55.757Z,93.92
2022-09-07T06:06:22.333Z,92.72
2022-09-07T06:08:51.202Z,92.13
2022-09-07T06:11:20.522Z,91.96
2022-09-07T06:13:47.161Z,91.47
2022-09-07T06:16:15.713Z,91.60
2022-09-07T06:18:44.435Z,90.71
2022-09-07T06:21:13.725Z,91.08
2022-09-07T06:23:41.907Z,90.96
2022-09-07T06:26:09.396Z,89.09
2022-09-07T06:28:38.681Z,88.68
2022-09-07T06:31:10.780Z,89.36
2022-09-07T06:33:37.599Z,88.79
2022-09-07T06:36:06.925Z,89.41
2022-09-07T06:38:39.475Z,90.04
2022-09-07T06:43:57.812Z,88.77
2022-09-07T06:49:12.379Z,89.30
2022-09-07T06:51:38.963Z,89.24
2022-09-07T06:56:52.092Z,88.41
2022-09-07T06:59:18.691Z,88.44
2022-09-07T07:01:45.244Z,88.01
2022-09-07T07:04:11.868Z,89.00
2022-09-07T07:06:39.212Z,88.92
2022-09-07T07:09:08.387Z,88.87
2022-09-07T07:11:37.265Z,87.77
2022-09-07T07:14:04.175Z,87.89
2022-09-07T07:16:30.784Z,87.72
2022-09-07T07:18:58.045Z,88.20
2022-09-07T07:21:24.710Z,87.69
2022-09-07T07:23:53.087Z,87.59
2022-09-07T07:26:22.358Z,87.94
2022-09-07T07:29:06.589Z,88.57
2022-09-07T07:31:34.587Z,87.74
2022-09-07T07:34:03.700Z,87.50
2022-09-07T07:36:30.893Z,87.97
2022-09-07T07:44:17.533Z,86.81
2022-09-07T07:46:48.112Z,87.07
2022-09-07T07:49:14.680Z,89.16
2022-09-07T07:54:27.725Z,88.46
2022-09-07T07:56:54.177Z,88.08
2022-09-07T07:59:20.705Z,87.17
2022-09-07T08:01:47.324Z,87.37
2022-09-07T08:04:13.962Z,87.13
2022-09-07T08:06:42.594Z,86.73
2022-09-07T08:09:09.185Z,86.97
2022-09-07T08:11:35.688Z,86.82
2022-09-07T08:14:05.916Z,87.53
2022-09-07T08:16:33.107Z,86.71
2022-09-07T08:18:59.707Z,85.28
2022-09-07T08:21:26.312Z,86.85
2022-09-07T08:23:52.795Z,85.62
2022-09-07T08:26:19.281Z,83.76
2022-09-07T08:28:46.247Z,83.83
2022-09-07T08:31:15.412Z,84.04
2022-09-07T08:33:42.640Z,85.31
2022-09-07T08:36:12.985Z,83.56
2022-09-07T08:38:40.410Z,82.65
2022-09-07T08:41:40.607Z,81.16
2022-09-07T08:44:18.532Z,80.92
2022-09-07T08:46:55.734Z,82.66
2022-09-07T08:49:45.544Z,80.56
2022-09-07T08:52:21.153Z,78.89
2022-09-07T08:54:58.810Z,77.72
2022-09-07T08:57:30.859Z,77.47
2022-09-07T09:00:27.366Z,76.64
2022-09-07T09:05:52.727Z,73.78
2022-09-07T09:09:02.482Z,72.44
2022-09-07T09:11:50.640Z,73.03
2022-09-07T09:14:39.441Z,71.14
2022-09-07T09:17:44.524Z,65.27
2022-09-07T09:20:24.023Z,66.75
2022-09-07T09:23:18.950Z,66.17
2022-09-07T09:25:57.292Z,67.20
2022-09-07T09:28:26.452Z,66.66
2022-09-07T09:30:55.452Z,68.33
2022-09-07T09:33:25.910Z,65.82
2022-09-07T09:35:59.172Z,58.57
2022-09-07T09:38:39.485Z,59.34
2022-09-07T09:41:08.812Z,61.61
2022-09-07T09:43:40.830Z,62.27
2022-09-07T09:46:29.159Z,62.01
2022-09-07T09:49:04.943Z,63.78
2022-09-07T09:54:34.481Z,65.96
2022-09-07T09:57:00.987Z,67.40
2022-09-07T10:05:42.525Z,67.88
2022-09-07T10:08:28.934Z,68.56
2022-09-07T10:11:07.633Z,69.89
2022-09-07T10:13:44.072Z,71.11
2022-09-07T10:16:11.773Z,69.78
2022-09-07T10:18:40.627Z,70.25
2022-09-07T10:21:25.460Z,68.85
2022-09-07T10:23:57.207Z,67.40
2022-09-07T10:26:35.598Z,68.40
2022-09-07T10:29:08.492Z,68.87
2022-09-07T10:31:56.080Z,69.38
2022-09-07T10:34:41.419Z,67.05
2022-09-07T10:37:10.979Z,68.72
2022-09-07T10:40:26.053Z,67.27
2022-09-07T10:43:22.789Z,66.90
2022-09-07T10:46:07.690Z,64.20
2022-09-07T10:49:05.046Z,63.64
2022-09-07T10:51:38.860Z,62.97
2022-09-07T10:54:36.011Z,62.51
2022-09-07T10:57:32.580Z,62.02
2022-09-07T11:00:15.008Z,60.87
2022-09-07T11:06:10.880Z,62.07
2022-09-07T11:12:01.129Z,62.35
2022-09-07T11:14:31.485Z,61.61
2022-09-07T11:17:02.430Z,60.05
2022-09-07T11:19:35.442Z,60.66
2022-09-07T11:22:16.154Z,62.61
2022-09-07T11:25:35.837Z,62.56
2022-09-07T11:28:12.644Z,61.67
2022-09-07T11:30:50.565Z,58.90
2022-09-07T11:33:21.874Z,57.92
2022-09-07T11:36:09.833Z,55.87
2022-09-07T11:38:49.369Z,55.22
2022-09-07T11:41:27.922Z,54.83
2022-09-07T11:43:57.323Z,55.41
2022-09-07T11:46:23.776Z,55.02
2022-09-07T11:48:58.139Z,52.96
2022-09-07T11:51:41.747Z,54.88
2022-09-07T11:54:23.436Z,55.85
2022-09-07T11:56:58.079Z,55.63
2022-09-07T11:59:53.537Z,54.11
2022-09-07T12:02:58.854Z,54.18
2022-09-07T12:05:47.265Z,52.35
2022-09-07T12:08:24.720Z,52.81
2022-09-07T12:11:22.681Z,55.00
2022-09-07T12:14:07.755Z,54.33
2022-09-07T12:17:11.474Z,53.52
2022-09-07T12:19:38.029Z,52.75
2022-09-07T12:22:05.432Z,54.08
2022-09-07T12:24:42.651Z,52.15
2022-09-07T12:27:41.673Z,51.38
2022-09-07T12:30:30.102Z,50.97
2022-09-07T12:32:58.060Z,48.68
2022-09-07T12:35:33.627Z,48.38
2022-09-07T12:38:01.845Z,50.69
2022-09-07T12:40:28.645Z,48.71
2022-09-07T12:43:13.656Z,48.94
2022-09-07T12:45:50.009Z,48.43
2022-09-07T12:48:16.455Z,46.82
2022-09-07T12:51:06.436Z,48.38
2022-09-07T12:53:57.791Z,48.02
2022-09-07T13:00:16.151Z,47.10
2022-09-07T13:03:07.182Z,45.52
2022-09-07T13:06:00.932Z,43.74
2022-09-07T13:08:42.569Z,45.04
2022-09-07T13:11:21.223Z,43.54
2022-09-07T13:14:29.699Z,43.89
2022-09-07T13:17:38.851Z,43.80
2022-09-07T13:20:18.870Z,43.81
2022-09-07T13:22:45.626Z,46.66
2022-09-07T13:25:22.428Z,46.89
2022-09-07T13:28:01.534Z,44.72
2022-09-07T13:30:44.752Z,44.11
2022-09-07T13:33:29.892Z,43.93
2022-09-07T13:36:05.369Z,44.86
2022-09-07T13:38:34.959Z,44.15
2022-09-07T13:41:12.416Z,43.24
2022-09-07T13:43:40.018Z,44.80
2022-09-07T13:46:47.858Z,41.43
2022-09-07T13:49:25.544Z,43.32
2022-09-07T13:52:00.118Z,41.38
2022-09-07T13:54:45.099Z,40.55
2022-09-07T13:57:40.618Z,40.73
2022-09-07T14:00:14.217Z,41.70
2022-09-07T14:02:41.411Z,42.65
2022-09-07T14:05:10.440Z,43.24
2022-09-07T14:07:37.230Z,43.42
2022-09-07T14:10:09.799Z,42.07
2022-09-07T14:12:44.906Z,43.35
2022-09-07T14:15:27.352Z,43.58
2022-09-07T14:18:03.544Z,42.42
2022-09-07T14:20:32.385Z,42.72
2022-09-07T14:22:59.400Z,42.15
2022-09-07T14:25:26.230Z,43.85
2022-09-07T14:27:52.821Z,43.38
2022-09-07T14:30:19.193Z,42.37
2022-09-07T14:33:02.107Z,41.62
2022-09-07T14:35:33.501Z,40.67
2022-09-07T14:38:15.863Z,40.46
2022-09-07T14:40:42.825Z,40.88
2022-09-07T14:43:27.978Z,39.66
2022-09-07T14:45:54.522Z,40.08
2022-09-07T14:48:29.255Z,40.98
2022-09-07T14:51:29.658Z,42.90
2022-09-07T14:53:53.795Z,42.25
2022-09-07T14:56:23.705Z,42.59
2022-09-07T14:58:52.707Z,42.78
2022-09-07T15:01:38.122Z,43.86
2022-09-07T15:04:18.392Z,43.24
2022-09-07T15:07:02.291Z,43.95
2022-09-07T15:09:35.922Z,43.55
2022-09-07T15:12:38.146Z,42.22
2022-09-07T15:15:40.198Z,41.62
2022-09-07T15:18:44.643Z,42.59
2022-09-07T15:21:11.322Z,43.52
2022-09-07T15:23:37.791Z,43.72
2022-09-07T15:26:05.009Z,43.21
2022-09-07T15:34:17.538Z,42.70
2022-09-07T15:36:49.362Z,41.19
2022-09-07T15:39:21.646Z,41.02
2022-09-07T15:41:48.355Z,40.22
2022-09-07T15:44:16.148Z,40.02
2022-09-07T15:47:43.182Z,39.63
2022-09-07T15:49:30.751Z,41.60
2022-09-07T15:52:05.418Z,41.03
2022-09-07T15:54:35.099Z,41.24
2022-09-07T15:59:49.743Z,41.80
2022-09-07T16:05:04.673Z,41.37
2022-09-07T16:10:18.581Z,40.89
2022-09-07T16:13:01.875Z,41.24
2022-09-07T16:15:29.178Z,42.02
2022-09-07T16:17:55.874Z,40.73
2022-09-07T16:20:22.357Z,41.56
2022-09-07T16:25:36.284Z,41.85
2022-09-07T16:28:05.703Z,41.11
2022-09-07T16:30:32.274Z,41.61
2022-09-07T16:32:58.880Z,41.21
2022-09-07T16:35:25.542Z,41.84
2022-09-07T16:40:41.876Z,41.19
2022-09-07T16:43:09.798Z,41.92
2022-09-07T16:48:23.031Z,42.09
2022-09-07T16:51:01.578Z,41.63
2022-09-07T16:53:33.511Z,42.09
2022-09-07T16:56:11.529Z,42.26
2022-09-07T16:58:40.822Z,42.48
2022-09-07T17:01:09.687Z,43.18
2022-09-07T17:03:37.694Z,42.77
2022-09-07T17:06:06.637Z,43.29
2022-09-07T17:08:34.594Z,43.54
2022-09-07T17:11:02.854Z,43.39
2022-09-07T17:13:31.362Z,43.63
2022-09-07T17:16:12.689Z,42.55
2022-09-07T17:21:35.536Z,42.69
2022-09-07T17:24:04.191Z,43.90
2022-09-07T17:26:31.242Z,43.89
2022-09-07T17:29:01.693Z,44.01
2022-09-07T17:34:18.084Z,44.17
2022-09-07T17:36:44.579Z,44.59
2022-09-07T17:39:16.326Z,45.02
2022-09-07T17:41:44.018Z,45.26
2022-09-07T17:44:10.884Z,45.63
2022-09-07T17:46:37.397Z,45.44
2022-09-07T17:51:32.860Z,46.15
2022-09-07T17:54:09.207Z,46.53
2022-09-07T17:56:36.451Z,46.57
2022-09-07T18:01:49.464Z,49.22
2022-09-07T18:04:16.081Z,49.60
2022-09-07T18:06:42.567Z,50.60
2022-09-07T18:09:09.024Z,51.12
2022-09-07T18:11:51.273Z,51.51
2022-09-07T18:14:18.272Z,53.71
2022-09-07T18:16:47.740Z,51.89
2022-09-07T18:19:15.302Z,51.63
2022-09-07T18:21:43.616Z,52.03
2022-09-07T18:24:23.016Z,55.61
2022-09-07T18:26:53.065Z,54.32
2022-09-07T18:29:31.074Z,56.78
2022-09-07T18:31:59.002Z,53.22
2022-09-07T18:34:26.279Z,54.40
2022-09-07T18:36:52.753Z,56.09
2022-09-07T18:39:19.253Z,56.88
2022-09-07T18:41:45.786Z,56.41
2022-09-07T18:46:58.634Z,57.18
2022-09-07T18:49:25.227Z,58.43
2022-09-07T18:54:39.413Z,57.72
2022-09-07T18:57:06.965Z,57.15
2022-09-07T18:59:33.809Z,57.21
2022-09-07T19:02:04.347Z,57.81
2022-09-07T19:07:20.584Z,58.23
2022-09-07T19:09:48.243Z,58.41
2022-09-07T19:12:15.179Z,59.54
2022-09-07T19:14:42.271Z,61.21
2022-09-07T19:17:10.898Z,61.39
2022-09-07T19:19:38.667Z,62.72
2022-09-07T19:22:06.056Z,61.96
2022-09-07T19:24:33.185Z,62.67
2022-09-07T19:27:00.856Z,62.29
2022-09-07T19:29:28.124Z,63.82
2022-09-07T19:32:13.006Z,64.77
2022-09-07T19:34:41.712Z,66.06
2022-09-07T19:37:10.304Z,64.58
2022-09-07T19:39:37.044Z,63.94
2022-09-07T19:42:04.654Z,63.95
2022-09-07T19:44:31.257Z,64.08
2022-09-07T19:46:57.754Z,64.22
2022-09-07T19:49:24.322Z,66.08
2022-09-07T19:51:51.907Z,65.65
2022-09-07T19:54:18.793Z,64.60
2022-09-07T19:56:45.575Z,64.55
2022-09-07T19:59:12.478Z,64.62
2022-09-07T20:01:40.559Z,66.58
2022-09-07T20:04:14.813Z,67.48
2022-09-07T20:06:44.018Z,67.06
2022-09-07T20:09:10.530Z,66.54
2022-09-07T20:11:37.013Z,67.59
2022-09-07T20:14:03.823Z,68.81
2022-09-07T20:16:31.231Z,68.63
2022-09-07T20:18:59.187Z,67.48
2022-09-07T20:21:26.896Z,67.12
2022-09-07T20:23:53.697Z,69.89
2022-09-07T20:26:21.726Z,71.45
2022-09-07T20:29:05.844Z,72.54
2022-09-07T20:31:38.367Z,69.16
2022-09-07T20:34:08.630Z,68.39
2022-09-07T20:36:35.056Z,73.23
2022-09-07T20:39:04.525Z,68.31
2022-09-07T20:41:33.982Z,69.68
2022-09-07T20:44:02.397Z,69.32
2022-09-07T20:46:31.803Z,71.40
2022-09-07T20:48:58.962Z,71.25
2022-09-07T20:51:25.876Z,72.86
2022-09-07T20:53:52.462Z,72.63
2022-09-07T20:56:23.826Z,74.89
2022-09-07T20:58:57.953Z,72.92
2022-09-07T21:01:24.838Z,72.56
2022-09-07T21:03:54.005Z,72.92
2022-09-07T21:06:22.284Z,72.58
2022-09-07T21:08:50.506Z,72.68
2022-09-07T21:11:19.717Z,72.70
2022-09-07T21:13:46.744Z,72.03
2022-09-07T21:16:15.821Z,73.43
2022-09-07T21:18:46.534Z,72.78
2022-09-07T21:21:20.864Z,72.53
2022-09-07T21:23:47.943Z,71.93
2022-09-07T21:26:15.133Z,72.62
2022-09-07T21:28:41.722Z,72.63
2022-09-07T21:31:09.334Z,74.54
2022-09-07T21:33:37.291Z,74.48
2022-09-07T21:36:13.638Z,76.51
2022-09-07T21:38:40.838Z,79.04
2022-09-07T21:41:08.596Z,74.33
2022-09-07T21:43:35.737Z,73.71
2022-09-07T21:46:09.577Z,74.67
2022-09-07T21:48:36.208Z,75.45
2022-09-07T21:51:03.208Z,76.12
2022-09-07T21:53:29.694Z,75.14
2022-09-07T21:56:01.864Z,76.67
2022-09-07T21:58:29.057Z,77.24
2022-09-07T22:00:57.019Z,74.51
2022-09-07T22:03:25.261Z,76.62
2022-09-07T22:05:51.738Z,77.48
2022-09-07T22:08:19.288Z,76.17
2022-09-07T22:10:46.478Z,76.82
2022-09-07T22:13:13.401Z,75.47
2022-09-07T22:15:41.454Z,75.39
2022-09-07T22:18:11.743Z,77.94
2022-09-07T22:20:38.555Z,82.19
2022-09-07T22:23:07.889Z,76.68
2022-09-07T22:25:34.916Z,75.88
2022-09-07T22:28:01.521Z,75.82
2022-09-07T22:30:28.083Z,74.89
2022-09-07T22:32:54.546Z,75.06
2022-09-07T22:35:21.448Z,75.75
2022-09-07T22:37:47.960Z,77.67
2022-09-07T22:40:14.786Z,76.53
2022-09-07T22:42:41.812Z,76.24
2022-09-07T22:45:09.060Z,76.52
2022-09-07T22:47:35.538Z,75.61
2022-09-07T22:50:02.000Z,75.06
2022-09-07T22:52:28.483Z,75.96
2022-09-07T22:54:54.905Z,76.27
2022-09-07T22:57:21.312Z,78.55
2022-09-07T22:59:47.740Z,80.15
2022-09-07T23:02:14.184Z,81.41
2022-09-07T23:04:41.006Z,79.91
2022-09-07T23:07:07.722Z,77.97
2022-09-07T23:09:34.280Z,78.15
2022-09-07T23:12:00.717Z,79.11
2022-09-07T23:14:27.194Z,78.86
2022-09-07T23:16:53.654Z,77.98
2022-09-07T23:19:20.809Z,78.93
2022-09-07T23:21:48.075Z,78.08
2022-09-07T23:24:16.949Z,77.37
2022-09-07T23:26:43.968Z,79.58
2022-09-07T23:29:12.788Z,78.65
2022-09-07T23:31:40.299Z,77.92
2022-09-07T23:34:07.736Z,80.14
2022-09-07T23:36:34.487Z,78.33
2022-09-07T23:39:01.279Z,77.62
2022-09-07T23:41:28.471Z,77.26
2022-09-07T23:43:55.375Z,77.55
2022-09-07T23:46:22.745Z,75.76
2022-09-07T23:48:50.041Z,76.74
2022-09-07T23:51:21.273Z,75.33
2022-09-07T23:53:49.669Z,76.08
2022-09-07T23:56:16.228Z,76.39
2022-09-07T23:58:42.798Z,77.09
